Warning: A non-numeric value encountered in /var/www/orzepowice24.pl/weather28/wsFunctions.php on line 312

Warning: A non-numeric value encountered in /var/www/orzepowice24.pl/weather28/wsFunctions.php on line 312

Warning: A non-numeric value encountered in /var/www/orzepowice24.pl/weather28/wsFunctions.php on line 312

Warning: A non-numeric value encountered in /var/www/orzepowice24.pl/weather28/wsFunctions.php on line 267

Warning: A non-numeric value encountered in /var/www/orzepowice24.pl/weather28/wsFunctions.php on line 267

Warning: A non-numeric value encountered in /var/www/orzepowice24.pl/weather28/wsFunctions.php on line 267

Warning: A non-numeric value encountered in /var/www/orzepowice24.pl/weather28/wsFunctions.php on line 267
Amatorska stacja pogodowa orzepowice24.pl
Bogaty zestaw statystyk w zakładce „DOKŁADNE STATYSTYKI”

Visit our other weather sites:

Template documentation
and downloads

SZCZEGÓŁOWE STATYSTYKI

weather34-X5


You find our weather info also at:

UK Metoffice

WeatherCloud

Weather Underground

AWEKAS

WeatherlinkIP

Citizen Weather Observer Program (CWOP)

HAMweather, WeatherForYou, PWS Weather


No particular awareness of the weather is required.    There are no Weather-warnings

Raporty METAR w pobliżu


Warning: A non-numeric value encountered in /var/www/orzepowice24.pl/weather28/metar/metarDisplay.php on line 166

Warning: A non-numeric value encountered in /var/www/orzepowice24.pl/weather28/metar/metarDisplay.php on line 166

Warning: A non-numeric value encountered in /var/www/orzepowice24.pl/weather28/metar/metarDisplay.php on line 166

Warning: A non-numeric value encountered in /var/www/orzepowice24.pl/weather28/metar/metarDisplay.php on line 166
   
EPKT - Katowice
Zaktualizowano: 16-10-2018 03:00
Shallow Fog, Częściowe Zachmurzenie  
Shallow Fog, Częściowe Zachmurzenie  
   Wiatr: varies 3.7 km/h
Wiatr: varies 3.7 km/h
Temperatura: 3°C
Punkt rosy: 2°C
Wilgotność: 93%
Ciśnienie: 1021 hPa
Zachmurzenie: Częściowe Zachmurzenie
Widoczność: Więcej niż 10 km
Szczegóły dotyczące chmur: Częściowe Zachmurzenie
EPKT 160100Z VRB02KT 9999 MIFG NSC 03/02 Q1021
EPKK - Kraków
Zaktualizowano: 16-10-2018 03:00
Bezchmurne niebo  
Bezchmurne niebo  
   Wiatr: WSW 5.6 km/h
Wiatr: WSW 5.6 km/h
Temperatura: 5°C
Wind Chill: 4°C
Punkt rosy: 4°C
Wilgotność: 93%
Ciśnienie: 1021 hPa
Widoczność: Więcej niż 10 km
Szczegóły dotyczące chmur: Bezchmurne niebo
EPKK 160100Z 24003KT CAVOK 05/04 Q1021
LKMT - Ostrava
Zaktualizowano: 16-10-2018 03:30
Bezchmurne niebo  
Bezchmurne niebo  
   Wiatr: SW 5.6 km/h
Wiatr: SW 5.6 km/h
Temperatura: 7°C
Wind Chill: 6°C
Punkt rosy: 4°C
Wilgotność: 81%
Ciśnienie: 1021 hPa
Widoczność: Więcej niż 10 km
Szczegóły dotyczące chmur: Bezchmurne niebo
LKMT 160130Z 23003KT CAVOK 07/04 Q1021 NOSIG
LZZI - Žilina
Zaktualizowano: 16-10-2018 03:00
Bezchmurne niebo  
Bezchmurne niebo  
   Wiatr: ENE 5.6 km/h
Wiatr: ENE 5.6 km/h
Temperatura: 5°C
Wind Chill: 4°C
Punkt rosy: 4°C
Wilgotność: 93%
Ciśnienie: 1023 hPa
Widoczność: Więcej niż 10 km
Szczegóły dotyczące chmur: Bezchmurne niebo
LZZI 160100Z 06003KT 010V110 CAVOK 05/04 Q1023
  

Skrypt opracowany przez  Saratoga-weather.org Dostosowany do szablonu przez  Weerstation Leuven